Time;durP1;ratioP1;P1;durP2;ratioP2;P2;SDS_P1;SDS_P2;PMS_P1;PMS_P2;Temp;Humidity;BMP_temperature;BMP_pressure;BME280_temperature;BME280_humidity;BME280_pressure;Samples;Min_cycle;Max_cycle;Signal;HPM_P1;HPM_P2
2024/01/14 00:00:06;;;;;;;19.33;15.93;;;10.70;60.60;;;;;;349694;28;1804;-54
2024/01/14 00:00:17;;;;;;;19.55;15.85;;;10.70;60.60;;;;;;349615;28;1890;-54
2024/01/14 00:00:34;;;;;;;18.08;15.45;;;10.70;60.60;;;;;;349587;28;1082;-53
2024/01/14 00:00:45;;;;;;;17.48;15.38;;;10.70;60.60;;;;;;349658;28;943;-53
2024/01/14 00:00:55;;;;;;;17.83;15.65;;;10.70;60.60;;;;;;349678;28;983;-54
2024/01/14 00:01:06;;;;;;;18.48;15.60;;;10.70;60.60;;;;;;349664;28;1883;-53
2024/01/14 00:01:18;;;;;;;19.65;16.15;;;10.70;60.60;;;;;;349591;28;1225;-54
2024/01/14 00:01:29;;;;;;;19.42;15.57;;;10.70;60.60;;;;;;349724;28;1035;-54
2024/01/14 00:01:40;;;;;;;20.48;15.70;;;10.70;60.60;;;;;;349712;28;1055;-54
2024/01/14 00:01:55;;;;;;;20.77;15.53;;;10.80;60.60;;;;;;349687;28;849;-54
2024/01/14 00:02:06;;;;;;;20.65;16.17;;;10.70;60.60;;;;;;349544;28;1063;-54
2024/01/14 00:02:17;;;;;;;19.65;16.08;;;10.70;60.60;;;;;;349668;28;1128;-54
2024/01/14 00:02:28;;;;;;;19.98;16.05;;;10.70;60.60;;;;;;349629;28;1071;-54
2024/01/14 00:02:39;;;;;;;18.87;15.23;;;10.80;60.60;;;;;;349636;28;1121;-53
2024/01/14 00:02:50;;;;;;;19.10;15.23;;;10.70;60.60;;;;;;349721;28;1022;-54
2024/01/14 00:03:01;;;;;;;19.37;15.17;;;10.70;60.60;;;;;;349553;28;1039;-54
2024/01/14 00:03:11;;;;;;;19.63;15.40;;;10.70;60.60;;;;;;349722;28;1472;-54
2024/01/14 00:03:22;;;;;;;19.73;15.57;;;10.70;60.60;;;;;;349694;28;963;-54
2024/01/14 00:03:33;;;;;;;19.88;15.68;;;10.70;60.60;;;;;;349705;28;1025;-53
2024/01/14 00:03:44;;;;;;;18.65;15.45;;;10.70;60.60;;;;;;349661;28;1058;-53
2024/01/14 00:03:55;;;;;;;17.95;14.88;;;10.80;60.60;;;;;;349606;28;931;-54
2024/01/14 00:04:06;;;;;;;18.20;14.96;;;10.70;60.70;;;;;;349684;28;864;-54
2024/01/14 00:04:17;;;;;;;18.67;15.27;;;10.70;60.70;;;;;;349667;28;1050;-53
2024/01/14 00:04:28;;;;;;;17.98;15.18;;;10.80;60.70;;;;;;349657;28;1161;-53
2024/01/14 00:04:38;;;;;;;17.20;14.88;;;10.70;60.70;;;;;;349662;28;1090;-53
2024/01/14 00:04:49;;;;;;;17.63;14.82;;;10.70;60.60;;;;;;349604;28;1080;-53
2024/01/14 00:05:00;;;;;;;17.63;15.00;;;10.70;60.60;;;;;;349649;28;1488;-53
2024/01/14 00:05:11;;;;;;;18.58;15.23;;;10.70;60.60;;;;;;349633;28;1138;-53
2024/01/14 00:05:21;;;;;;;20.33;15.63;;;10.70;60.60;;;;;;349610;28;1103;-53
2024/01/14 00:05:32;;;;;;;21.70;15.93;;;10.70;60.60;;;;;;349682;28;1011;-53
2024/01/14 00:05:43;;;;;;;21.80;15.77;;;10.80;60.70;;;;;;349713;28;867;-53
2024/01/14 00:05:53;;;;;;;20.43;15.07;;;10.70;60.60;;;;;;349521;28;1227;-53
2024/01/14 00:06:05;;;;;;;19.40;14.93;;;10.70;60.60;;;;;;349678;28;1070;-54
2024/01/14 00:06:15;;;;;;;18.08;14.95;;;10.70;60.70;;;;;;349604;28;1110;-54
2024/01/14 00:06:26;;;;;;;18.33;15.32;;;10.70;60.70;;;;;;349587;28;1027;-53
2024/01/14 00:06:37;;;;;;;19.00;15.30;;;10.70;60.70;;;;;;349670;28;1646;-53
2024/01/14 00:06:49;;;;;;;19.63;15.27;;;10.70;60.70;;;;;;349657;28;991;-53
2024/01/14 00:07:00;;;;;;;18.92;15.52;;;10.70;60.70;;;;;;349578;28;972;-53
2024/01/14 00:07:11;;;;;;;18.55;15.75;;;10.70;60.70;;;;;;349693;28;1358;-52
2024/01/14 00:07:21;;;;;;;19.10;15.82;;;10.70;60.70;;;;;;349645;28;1012;-53
2024/01/14 00:07:32;;;;;;;19.13;15.63;;;10.70;60.70;;;;;;349638;28;1067;-53
2024/01/14 00:07:43;;;;;;;17.57;14.90;;;10.70;60.70;;;;;;349648;28;1078;-53
2024/01/14 00:07:54;;;;;;;16.98;14.38;;;10.70;60.70;;;;;;349661;28;1011;-53
2024/01/14 00:08:05;;;;;;;17.75;14.88;;;10.70;60.70;;;;;;349578;28;1063;-53
2024/01/14 00:08:15;;;;;;;19.13;15.75;;;10.70;60.70;;;;;;349691;28;971;-53
2024/01/14 00:08:26;;;;;;;19.10;15.82;;;10.70;60.70;;;;;;349704;28;1053;-53
2024/01/14 00:08:37;;;;;;;18.75;15.43;;;10.70;60.70;;;;;;349526;28;1200;-54
2024/01/14 00:08:48;;;;;;;20.40;15.60;;;10.70;60.70;;;;;;349689;28;999;-54
2024/01/14 00:08:58;;;;;;;19.90;15.10;;;10.70;60.80;;;;;;349678;28;980;-53
2024/01/14 00:09:09;;;;;;;18.20;14.57;;;10.70;60.80;;;;;;349615;28;1045;-54
2024/01/14 00:09:20;;;;;;;16.85;14.15;;;10.70;60.80;;;;;;349685;28;859;-53
2024/01/14 00:09:31;;;;;;;17.30;14.50;;;10.70;60.80;;;;;;349632;28;851;-54
2024/01/14 00:09:41;;;;;;;17.60;14.47;;;10.70;60.80;;;;;;349650;28;1190;-54
2024/01/14 00:09:53;;;;;;;18.90;14.65;;;10.70;60.80;;;;;;349512;28;1701;-55
2024/01/14 00:10:05;;;;;;;18.77;14.68;;;10.70;60.80;;;;;;349662;28;1038;-52
2024/01/14 00:10:16;;;;;;;17.52;14.73;;;10.70;60.80;;;;;;349601;28;987;-54
2024/01/14 00:10:27;;;;;;;16.52;14.65;;;10.70;60.80;;;;;;349582;28;1069;-54
2024/01/14 00:10:37;;;;;;;17.45;14.77;;;10.70;60.90;;;;;;349552;28;1055;-54
2024/01/14 00:10:48;;;;;;;18.43;15.03;;;10.70;60.90;;;;;;349648;28;1593;-54
2024/01/14 00:10:59;;;;;;;17.85;14.65;;;10.70;60.80;;;;;;349568;28;1211;-53
2024/01/14 00:11:10;;;;;;;17.83;14.60;;;10.70;60.90;;;;;;349639;28;1123;-53
2024/01/14 00:11:20;;;;;;;17.52;14.88;;;10.70;60.90;;;;;;349582;28;1285;-54
2024/01/14 00:11:31;;;;;;;18.80;15.30;;;10.70;60.80;;;;;;349690;28;1011;-55
2024/01/14 00:11:42;;;;;;;19.43;15.27;;;10.70;60.80;;;;;;349627;28;1683;-53
2024/01/14 00:11:54;;;;;;;19.30;14.75;;;10.70;60.90;;;;;;349617;28;931;-53
2024/01/14 00:12:06;;;;;;;17.88;15.05;;;10.70;60.80;;;;;;349622;28;931;-54
2024/01/14 00:12:17;;;;;;;16.88;15.15;;;10.70;60.90;;;;;;349672;28;1007;-54
2024/01/14 00:12:28;;;;;;;17.00;15.20;;;10.70;60.90;;;;;;349582;28;947;-54
2024/01/14 00:12:38;;;;;;;16.77;14.88;;;10.70;60.90;;;;;;349607;28;1028;-53
2024/01/14 00:12:50;;;;;;;17.42;14.65;;;10.70;60.90;;;;;;349606;28;1194;-54
2024/01/14 00:13:01;;;;;;;16.83;14.23;;;10.70;60.90;;;;;;349634;28;1115;-53
2024/01/14 00:13:12;;;;;;;17.80;14.33;;;10.70;60.90;;;;;;349638;28;1081;-53
2024/01/14 00:13:23;;;;;;;17.55;14.30;;;10.70;60.90;;;;;;349700;28;959;-54
2024/01/14 00:13:33;;;;;;;17.58;14.13;;;10.70;60.90;;;;;;349609;28;1074;-53
2024/01/14 00:13:44;;;;;;;18.08;13.80;;;10.70;60.90;;;;;;349652;28;1578;-53
2024/01/14 00:13:55;;;;;;;18.60;14.32;;;10.70;60.90;;;;;;349549;28;1087;-52
2024/01/14 00:14:05;;;;;;;18.67;14.57;;;10.70;60.90;;;;;;349676;28;1031;-53
2024/01/14 00:14:16;;;;;;;18.03;14.77;;;10.70;60.90;;;;;;349744;28;833;-53
2024/01/14 00:14:27;;;;;;;17.48;14.60;;;10.70;60.90;;;;;;349551;28;1806;-52
2024/01/14 00:14:38;;;;;;;17.73;14.75;;;10.70;60.90;;;;;;349704;28;967;-52
2024/01/14 00:14:48;;;;;;;17.58;14.98;;;10.70;60.90;;;;;;349674;28;887;-54
2024/01/14 00:14:59;;;;;;;18.70;15.17;;;10.70;60.90;;;;;;349571;28;2420;-52
2024/01/14 00:15:11;;;;;;;17.95;14.77;;;10.70;60.80;;;;;;349569;28;1560;-53
2024/01/14 00:15:21;;;;;;;18.48;14.73;;;10.70;60.80;;;;;;349676;28;1082;-54
2024/01/14 00:15:32;;;;;;;17.97;15.23;;;10.70;60.80;;;;;;349523;28;1216;-53
2024/01/14 00:15:43;;;;;;;18.45;14.80;;;10.70;60.80;;;;;;349689;28;1007;-55
2024/01/14 00:15:54;;;;;;;17.75;14.60;;;10.70;60.90;;;;;;349620;28;1067;-53
2024/01/14 00:16:04;;;;;;;18.13;14.60;;;10.70;60.90;;;;;;349570;28;995;-52
2024/01/14 00:16:16;;;;;;;17.25;14.48;;;10.70;60.90;;;;;;349636;28;1177;-52
2024/01/14 00:16:27;;;;;;;16.67;14.35;;;10.70;60.90;;;;;;349682;28;995;-53
2024/01/14 00:16:37;;;;;;;16.60;14.27;;;10.70;60.90;;;;;;349616;28;914;-53
2024/01/14 00:16:48;;;;;;;16.52;14.65;;;10.70;60.90;;;;;;349593;28;1694;-54
2024/01/14 00:16:59;;;;;;;16.65;14.85;;;10.70;60.90;;;;;;349680;28;917;-53
2024/01/14 00:17:10;;;;;;;17.05;14.93;;;10.70;60.90;;;;;;349616;28;911;-52
2024/01/14 00:17:21;;;;;;;18.48;15.18;;;10.70;60.90;;;;;;349714;28;880;-54
2024/01/14 00:17:32;;;;;;;18.90;15.50;;;10.70;60.90;;;;;;349687;28;1027;-54
2024/01/14 00:17:43;;;;;;;18.85;15.57;;;10.70;61.00;;;;;;349583;28;1069;-53
2024/01/14 00:17:54;;;;;;;18.10;15.03;;;10.70;61.00;;;;;;349675;28;833;-54
2024/01/14 00:18:04;;;;;;;18.83;14.80;;;10.70;61.00;;;;;;349664;28;880;-54
2024/01/14 00:18:15;;;;;;;18.63;14.85;;;10.70;61.00;;;;;;349636;28;1016;-53
2024/01/14 00:18:26;;;;;;;17.77;15.00;;;10.70;61.00;;;;;;349697;28;1102;-54
2024/01/14 00:18:37;;;;;;;17.17;15.27;;;10.70;61.00;;;;;;349748;28;871;-53
2024/01/14 00:18:47;;;;;;;17.58;15.25;;;10.70;61.00;;;;;;349566;28;1808;-53
2024/01/14 00:18:58;;;;;;;17.83;15.20;;;10.70;61.00;;;;;;349635;28;959;-53
2024/01/14 00:19:09;;;;;;;18.88;15.38;;;10.70;61.00;;;;;;349647;28;1162;-54
2024/01/14 00:19:20;;;;;;;19.23;15.43;;;10.70;61.00;;;;;;349601;28;1008;-53
2024/01/14 00:19:31;;;;;;;17.58;14.95;;;10.70;61.00;;;;;;349694;28;873;-53
2024/01/14 00:19:41;;;;;;;16.98;14.90;;;10.70;61.00;;;;;;349629;28;1407;-53
2024/01/14 00:19:52;;;;;;;16.75;14.88;;;10.70;61.00;;;;;;349542;28;1031;-53
2024/01/14 00:20:04;;;;;;;17.10;15.10;;;10.70;61.00;;;;;;349624;28;1893;-53
2024/01/14 00:20:15;;;;;;;16.77;14.98;;;10.70;60.90;;;;;;349651;28;870;-53
2024/01/14 00:20:26;;;;;;;16.75;14.95;;;10.70;61.00;;;;;;349596;28;1058;-53
2024/01/14 00:20:36;;;;;;;16.52;14.73;;;10.70;61.00;;;;;;349692;28;999;-53
2024/01/14 00:20:47;;;;;;;17.17;14.65;;;10.70;61.00;;;;;;349696;28;840;-54
2024/01/14 00:20:58;;;;;;;18.13;14.48;;;10.70;61.00;;;;;;349600;28;1035;-53
2024/01/14 00:21:09;;;;;;;19.77;14.80;;;10.70;60.90;;;;;;349640;28;1012;-52
2024/01/14 00:21:19;;;;;;;19.77;14.83;;;10.70;60.90;;;;;;349614;28;1099;-53
2024/01/14 00:21:33;;;;;;;18.38;14.98;;;10.70;60.90;;;;;;349583;28;1051;-54
2024/01/14 00:21:44;;;;;;;17.67;15.35;;;10.70;60.90;;;;;;349618;28;1038;-55
2024/01/14 00:21:54;;;;;;;19.55;15.50;;;10.70;60.90;;;;;;349680;28;1082;-53
2024/01/14 00:22:05;;;;;;;19.23;15.33;;;10.70;60.90;;;;;;349631;28;919;-52
2024/01/14 00:22:16;;;;;;;17.67;14.75;;;10.70;60.90;;;;;;349626;28;868;-53
2024/01/14 00:22:27;;;;;;;17.80;14.77;;;10.70;61.00;;;;;;349638;28;1157;-53
2024/01/14 00:22:37;;;;;;;18.65;14.98;;;10.70;61.00;;;;;;349589;28;1902;-53
2024/01/14 00:22:48;;;;;;;18.90;14.53;;;10.70;60.90;;;;;;349623;28;1612;-53
2024/01/14 00:22:59;;;;;;;18.10;14.32;;;10.70;60.90;;;;;;349682;28;983;-53
2024/01/14 00:23:10;;;;;;;17.85;14.05;;;10.70;60.90;;;;;;349579;28;1092;-53
2024/01/14 00:23:21;;;;;;;19.07;14.53;;;10.70;60.90;;;;;;349674;28;979;-53
2024/01/14 00:23:32;;;;;;;19.37;14.63;;;10.70;60.90;;;;;;349688;28;1026;-52
2024/01/14 00:23:42;;;;;;;19.30;14.82;;;10.70;60.90;;;;;;349589;28;1425;-52
2024/01/14 00:23:53;;;;;;;19.00;14.90;;;10.70;60.90;;;;;;349614;28;825;-53
2024/01/14 00:24:04;;;;;;;17.00;14.57;;;10.70;60.80;;;;;;349611;28;2384;-53
2024/01/14 00:24:15;;;;;;;16.08;14.27;;;10.70;60.80;;;;;;349560;28;1051;-53
2024/01/14 00:24:26;;;;;;;15.65;14.02;;;10.70;60.80;;;;;;349628;28;1257;-53
2024/01/14 00:24:37;;;;;;;16.05;14.15;;;10.70;60.70;;;;;;349676;28;1018;-52
2024/01/14 00:24:49;;;;;;;16.37;14.07;;;10.70;60.70;;;;;;349724;28;860;-53
2024/01/14 00:25:00;;;;;;;15.82;13.98;;;10.70;60.80;;;;;;349590;28;1027;-54
2024/01/14 00:25:11;;;;;;;15.77;13.95;;;10.70;60.70;;;;;;349606;28;1170;-53
2024/01/14 00:25:22;;;;;;;18.05;14.05;;;10.70;60.80;;;;;;349668;28;1046;-53
2024/01/14 00:25:33;;;;;;;18.13;14.13;;;10.70;60.80;;;;;;349676;28;996;-53
2024/01/14 00:25:44;;;;;;;19.33;14.57;;;10.70;60.80;;;;;;349582;28;1554;-54
2024/01/14 00:25:54;;;;;;;18.07;14.63;;;10.70;60.80;;;;;;349619;28;1082;-54
2024/01/14 00:26:05;;;;;;;17.40;14.35;;;10.70;60.80;;;;;;349624;28;1741;-53
2024/01/14 00:26:16;;;;;;;17.65;14.13;;;10.70;60.80;;;;;;349697;28;844;-53
2024/01/14 00:26:28;;;;;;;17.75;14.23;;;10.70;60.80;;;;;;349635;28;1037;-52
2024/01/14 00:26:39;;;;;;;19.48;14.70;;;10.70;60.80;;;;;;349662;28;931;-52
2024/01/14 00:26:50;;;;;;;18.90;14.63;;;10.70;60.80;;;;;;349631;28;987;-53
2024/01/14 00:27:00;;;;;;;17.33;14.23;;;10.70;60.80;;;;;;349644;28;995;-53
2024/01/14 00:27:12;;;;;;;16.95;14.23;;;10.70;60.80;;;;;;349615;28;927;-53
2024/01/14 00:27:23;;;;;;;17.48;14.60;;;10.70;60.70;;;;;;349699;28;919;-53
2024/01/14 00:27:34;;;;;;;16.85;14.35;;;10.70;60.70;;;;;;349674;28;904;-53
2024/01/14 00:27:45;;;;;;;15.97;14.23;;;10.70;60.70;;;;;;349611;28;1282;-53
2024/01/14 00:27:56;;;;;;;17.30;14.40;;;10.70;60.70;;;;;;349555;28;1821;-53
2024/01/14 00:28:06;;;;;;;18.25;14.57;;;10.70;60.70;;;;;;349647;28;1079;-53
2024/01/14 00:28:17;;;;;;;18.60;14.82;;;10.70;60.70;;;;;;349687;28;955;-52
2024/01/14 00:28:28;;;;;;;17.42;14.77;;;10.70;60.70;;;;;;349699;28;825;-54
2024/01/14 00:28:38;;;;;;;18.40;14.90;;;10.70;60.70;;;;;;349544;28;1112;-53
2024/01/14 00:28:49;;;;;;;18.58;14.60;;;10.70;60.80;;;;;;349630;28;1607;-53
2024/01/14 00:29:01;;;;;;;19.40;14.52;;;10.70;60.80;;;;;;349578;28;1409;-53
2024/01/14 00:29:12;;;;;;;19.02;14.65;;;10.70;60.80;;;;;;349659;28;1134;-53
2024/01/14 00:29:23;;;;;;;17.70;14.70;;;10.70;60.80;;;;;;349660;28;998;-53
2024/01/14 00:29:36;;;;;;;17.08;14.40;;;10.70;60.90;;;;;;349580;28;1295;-53
2024/01/14 00:29:47;;;;;;;16.48;14.18;;;10.70;60.80;;;;;;349626;28;1118;-53
2024/01/14 00:29:59;;;;;;;16.10;13.57;;;10.70;60.80;;;;;;349619;28;1019;-53
2024/01/14 00:30:10;;;;;;;17.02;13.80;;;10.70;60.90;;;;;;349635;28;1058;-53
2024/01/14 00:30:20;;;;;;;16.52;13.65;;;10.70;60.90;;;;;;349598;28;983;-53
2024/01/14 00:30:31;;;;;;;16.33;13.77;;;10.70;60.80;;;;;;349607;28;1173;-53
2024/01/14 00:30:42;;;;;;;15.23;13.27;;;10.70;60.80;;;;;;349634;28;1047;-54
2024/01/14 00:30:53;;;;;;;16.55;13.65;;;10.70;60.80;;;;;;349662;28;990;-53
2024/01/14 00:31:03;;;;;;;16.90;13.63;;;10.70;60.80;;;;;;349639;28;1018;-53
2024/01/14 00:31:14;;;;;;;17.88;14.13;;;10.70;60.90;;;;;;349627;28;983;-53
2024/01/14 00:31:25;;;;;;;17.08;13.93;;;10.70;60.80;;;;;;349702;28;947;-54
2024/01/14 00:31:36;;;;;;;16.63;14.10;;;10.70;60.80;;;;;;349568;28;983;-52
2024/01/14 00:31:47;;;;;;;16.23;14.10;;;10.70;60.80;;;;;;349699;28;858;-53
2024/01/14 00:31:58;;;;;;;17.13;14.47;;;10.70;60.80;;;;;;349646;28;1756;-53
2024/01/14 00:32:09;;;;;;;18.08;14.38;;;10.70;60.80;;;;;;349572;28;1090;-53
2024/01/14 00:32:21;;;;;;;17.88;14.20;;;10.70;60.80;;;;;;349680;28;867;-53
2024/01/14 00:32:32;;;;;;;16.92;14.00;;;10.70;60.80;;;;;;349624;28;1557;-53
2024/01/14 00:32:43;;;;;;;17.63;14.30;;;10.70;60.80;;;;;;349668;28;1042;-54
2024/01/14 00:32:54;;;;;;;16.25;13.85;;;10.70;60.80;;;;;;349588;28;886;-52
2024/01/14 00:33:04;;;;;;;15.77;13.97;;;10.70;60.90;;;;;;349685;28;1013;-53
2024/01/14 00:33:15;;;;;;;15.13;13.53;;;10.70;60.80;;;;;;349716;28;911;-52
2024/01/14 00:33:26;;;;;;;16.30;14.30;;;10.70;60.80;;;;;;349652;28;1062;-54
2024/01/14 00:33:37;;;;;;;17.25;14.25;;;10.70;60.80;;;;;;349631;28;1086;-54
2024/01/14 00:33:49;;;;;;;17.27;14.60;;;10.70;60.80;;;;;;349556;28;1045;-52
2024/01/14 00:34:00;;;;;;;17.00;14.30;;;10.70;60.90;;;;;;349508;28;1910;-52
2024/01/14 00:34:11;;;;;;;16.55;14.35;;;10.70;60.90;;;;;;349584;28;1224;-52
2024/01/14 00:34:21;;;;;;;16.83;14.13;;;10.70;60.80;;;;;;349673;28;864;-54
2024/01/14 00:34:32;;;;;;;16.83;14.18;;;10.70;60.90;;;;;;349680;28;1027;-52
2024/01/14 00:34:43;;;;;;;18.57;14.70;;;10.70;60.90;;;;;;349609;28;914;-53
2024/01/14 00:34:54;;;;;;;17.52;14.20;;;10.70;60.90;;;;;;349689;28;895;-53
2024/01/14 00:35:05;;;;;;;17.00;14.23;;;10.70;60.80;;;;;;349646;28;1420;-51
2024/01/14 00:35:15;;;;;;;16.30;14.30;;;10.70;60.80;;;;;;349640;28;1169;-53
2024/01/14 00:35:26;;;;;;;16.60;14.40;;;10.70;60.80;;;;;;349525;28;1065;-53
2024/01/14 00:35:37;;;;;;;16.98;14.25;;;10.70;60.80;;;;;;349623;28;1095;-53
2024/01/14 00:35:48;;;;;;;17.33;14.40;;;10.70;60.80;;;;;;349653;28;1927;-53
2024/01/14 00:36:04;;;;;;;19.07;14.57;;;10.70;60.80;;;;;;349631;28;955;-53
2024/01/14 00:36:16;;;;;;;18.02;14.18;;;10.70;60.80;;;;;;349577;28;1015;-53
2024/01/14 00:36:26;;;;;;;16.95;14.43;;;10.70;60.70;;;;;;349622;28;1185;-53
2024/01/14 00:36:40;;;;;;;17.37;14.67;;;10.70;60.70;;;;;;349644;28;983;-53
2024/01/14 00:36:51;;;;;;;17.75;14.65;;;10.70;60.70;;;;;;349558;28;1046;-53
2024/01/14 00:37:02;;;;;;;18.25;14.60;;;10.70;60.70;;;;;;349649;28;864;-53
2024/01/14 00:37:13;;;;;;;17.60;14.73;;;10.70;60.70;;;;;;349537;28;1558;-53
2024/01/14 00:37:24;;;;;;;18.52;14.95;;;10.70;60.70;;;;;;349620;28;813;-53
2024/01/14 00:37:35;;;;;;;17.58;14.88;;;10.70;60.80;;;;;;349564;28;1105;-53
2024/01/14 00:37:47;;;;;;;17.40;14.70;;;10.70;60.80;;;;;;349648;28;1192;-53
2024/01/14 00:37:59;;;;;;;16.88;14.70;;;10.70;60.70;;;;;;349615;28;963;-53
2024/01/14 00:38:10;;;;;;;17.95;15.23;;;10.70;60.80;;;;;;349570;28;1220;-53
2024/01/14 00:38:21;;;;;;;18.00;15.50;;;10.70;60.80;;;;;;349627;28;844;-53
2024/01/14 00:38:32;;;;;;;18.33;15.60;;;10.70;60.80;;;;;;349665;28;1029;-53
2024/01/14 00:38:42;;;;;;;20.30;15.23;;;10.70;60.80;;;;;;349704;28;908;-53
2024/01/14 00:38:53;;;;;;;20.33;15.18;;;10.70;60.80;;;;;;349588;28;955;-53
2024/01/14 00:39:04;;;;;;;20.90;14.82;;;10.70;60.80;;;;;;349695;28;840;-53
2024/01/14 00:39:15;;;;;;;18.70;14.83;;;10.70;60.80;;;;;;349648;28;1069;-53
2024/01/14 00:39:25;;;;;;;19.30;15.02;;;10.70;60.80;;;;;;349651;28;896;-54
2024/01/14 00:39:37;;;;;;;18.55;15.20;;;10.70;60.80;;;;;;349621;28;1022;-53
2024/01/14 00:39:49;;;;;;;17.95;15.27;;;10.70;60.80;;;;;;349571;28;1505;-53
2024/01/14 00:39:59;;;;;;;18.70;15.43;;;10.70;60.80;;;;;;349626;28;1085;-53
2024/01/14 00:40:10;;;;;;;20.15;16.02;;;10.70;60.80;;;;;;349572;28;1274;-52
2024/01/14 00:40:21;;;;;;;20.40;16.42;;;10.70;60.80;;;;;;349607;28;2002;-54
2024/01/14 00:40:32;;;;;;;19.27;16.10;;;10.70;60.80;;;;;;349652;28;979;-54
2024/01/14 00:40:43;;;;;;;19.15;15.82;;;10.70;60.80;;;;;;349585;28;1038;-53
2024/01/14 00:40:53;;;;;;;19.30;15.38;;;10.70;60.80;;;;;;349652;28;899;-53
2024/01/14 00:41:04;;;;;;;19.87;15.40;;;10.70;60.90;;;;;;349633;28;998;-53
2024/01/14 00:41:15;;;;;;;19.40;14.88;;;10.70;60.80;;;;;;349608;28;921;-53
2024/01/14 00:41:26;;;;;;;19.15;14.90;;;10.70;60.90;;;;;;349634;28;1038;-52
2024/01/14 00:41:37;;;;;;;19.40;15.48;;;10.70;60.90;;;;;;349653;28;816;-53
2024/01/14 00:41:47;;;;;;;19.23;15.88;;;10.70;60.90;;;;;;349617;28;1018;-53
2024/01/14 00:41:58;;;;;;;18.50;15.48;;;10.70;60.90;;;;;;349674;28;891;-53
2024/01/14 00:42:09;;;;;;;16.87;14.23;;;10.70;60.90;;;;;;349614;28;1237;-53
2024/01/14 00:42:20;;;;;;;16.30;13.98;;;10.70;60.90;;;;;;349596;28;918;-53
2024/01/14 00:42:30;;;;;;;16.33;13.93;;;10.70;60.90;;;;;;349493;28;1600;-54
2024/01/14 00:42:41;;;;;;;17.45;14.38;;;10.70;60.90;;;;;;349650;28;1058;-53
2024/01/14 00:42:52;;;;;;;17.53;14.60;;;10.70;60.90;;;;;;349535;28;1260;-53
2024/01/14 00:43:03;;;;;;;16.92;14.45;;;10.70;60.90;;;;;;349634;28;890;-53
2024/01/14 00:43:13;;;;;;;16.35;14.57;;;10.70;60.90;;;;;;349580;28;1595;-54
2024/01/14 00:43:24;;;;;;;16.60;14.75;;;10.70;60.90;;;;;;349548;28;1090;-53
2024/01/14 00:43:35;;;;;;;16.70;14.85;;;10.70;60.90;;;;;;349654;28;1951;-53
2024/01/14 00:43:46;;;;;;;16.75;14.40;;;10.70;60.80;;;;;;349625;28;1061;-53
2024/01/14 00:43:57;;;;;;;17.80;14.50;;;10.70;60.90;;;;;;349581;28;1025;-54
2024/01/14 00:44:08;;;;;;;18.23;14.45;;;10.70;60.90;;;;;;349625;28;1003;-54
2024/01/14 00:44:19;;;;;;;17.67;14.73;;;10.70;60.90;;;;;;349672;28;951;-54
2024/01/14 00:44:29;;;;;;;17.75;15.15;;;10.70;60.80;;;;;;349624;28;927;-54
2024/01/14 00:44:43;;;;;;;17.47;15.27;;;10.70;60.90;;;;;;349605;28;1034;-54
2024/01/14 00:44:54;;;;;;;17.80;15.40;;;10.70;60.80;;;;;;349604;28;1053;-54
2024/01/14 00:45:05;;;;;;;18.45;15.57;;;10.70;60.80;;;;;;349693;28;963;-53
2024/01/14 00:45:15;;;;;;;18.35;15.95;;;10.70;60.80;;;;;;349675;28;923;-52
2024/01/14 00:45:26;;;;;;;18.45;16.08;;;10.70;60.80;;;;;;349600;28;1607;-54
2024/01/14 00:45:37;;;;;;;18.07;15.87;;;10.70;60.90;;;;;;349636;28;1049;-54
2024/01/14 00:45:48;;;;;;;17.92;15.57;;;10.70;60.90;;;;;;349619;28;1074;-54
2024/01/14 00:45:58;;;;;;;18.00;15.00;;;10.70;60.90;;;;;;349629;28;959;-54
2024/01/14 00:46:09;;;;;;;17.15;14.57;;;10.70;60.90;;;;;;349655;28;951;-54
2024/01/14 00:46:20;;;;;;;18.90;14.75;;;10.70;60.90;;;;;;349612;28;1230;-54
2024/01/14 00:46:31;;;;;;;19.00;15.30;;;10.70;60.90;;;;;;349718;28;852;-53
2024/01/14 00:46:42;;;;;;;18.67;15.57;;;10.70;60.90;;;;;;349626;28;1836;-53
2024/01/14 00:46:52;;;;;;;18.07;15.77;;;10.70;60.90;;;;;;349685;28;983;-52
2024/01/14 00:47:03;;;;;;;18.02;15.60;;;10.70;60.90;;;;;;349569;28;1069;-54
2024/01/14 00:47:14;;;;;;;20.50;15.23;;;10.70;60.90;;;;;;349593;28;1641;-54
2024/01/14 00:47:30;;;;;;;19.70;14.82;;;10.70;60.90;;;;;;349624;28;1344;-52
2024/01/14 00:47:40;;;;;;;19.65;15.30;;;10.70;60.90;;;;;;349609;28;1106;-54
2024/01/14 00:47:51;;;;;;;18.80;15.50;;;10.70;60.90;;;;;;349572;28;1087;-53
2024/01/14 00:48:02;;;;;;;19.67;15.52;;;10.70;60.90;;;;;;349685;28;951;-53
2024/01/14 00:48:13;;;;;;;19.98;15.77;;;10.70;60.90;;;;;;349627;28;1069;-53
2024/01/14 00:48:24;;;;;;;20.20;15.20;;;10.70;60.90;;;;;;349623;28;968;-53
2024/01/14 00:48:35;;;;;;;19.77;15.32;;;10.70;60.90;;;;;;349608;28;1160;-52
2024/01/14 00:48:45;;;;;;;19.40;15.32;;;10.70;60.90;;;;;;349556;28;1019;-53
2024/01/14 00:48:56;;;;;;;19.17;15.27;;;10.70;60.90;;;;;;349602;28;1090;-53
2024/01/14 00:49:07;;;;;;;19.60;15.10;;;10.70;60.90;;;;;;349613;28;1074;-53
2024/01/14 00:49:18;;;;;;;19.55;14.73;;;10.70;61.00;;;;;;349645;28;975;-53
2024/01/14 00:49:29;;;;;;;19.17;15.20;;;10.70;60.90;;;;;;349528;28;1011;-52
2024/01/14 00:49:39;;;;;;;18.83;15.63;;;10.70;61.00;;;;;;349559;28;1466;-53
2024/01/14 00:49:50;;;;;;;18.83;16.00;;;10.70;61.00;;;;;;349638;28;987;-53
2024/01/14 00:50:01;;;;;;;19.50;15.80;;;10.70;61.00;;;;;;349623;28;932;-53
2024/01/14 00:50:12;;;;;;;18.63;15.40;;;10.70;61.00;;;;;;349661;28;1094;-53
2024/01/14 00:50:23;;;;;;;18.38;15.02;;;10.70;61.00;;;;;;349597;28;1037;-53
2024/01/14 00:50:33;;;;;;;17.67;14.53;;;10.70;61.00;;;;;;349583;28;1027;-53
2024/01/14 00:50:44;;;;;;;17.90;14.52;;;10.70;61.00;;;;;;349633;28;1225;-53
2024/01/14 00:50:55;;;;;;;18.45;14.43;;;10.70;61.00;;;;;;349630;28;1073;-54
2024/01/14 00:51:06;;;;;;;18.13;14.52;;;10.70;61.00;;;;;;349556;28;1102;-53
2024/01/14 00:51:16;;;;;;;17.92;13.82;;;10.70;61.00;;;;;;349645;28;1038;-52
2024/01/14 00:51:27;;;;;;;16.67;13.70;;;10.70;61.00;;;;;;349660;28;978;-53
2024/01/14 00:51:38;;;;;;;15.90;13.82;;;10.70;61.00;;;;;;349563;28;1023;-53
2024/01/14 00:51:49;;;;;;;16.02;14.32;;;10.70;61.00;;;;;;349666;28;1011;-53
2024/01/14 00:52:00;;;;;;;15.80;14.10;;;10.70;61.00;;;;;;349581;28;1034;-53
2024/01/14 00:52:10;;;;;;;16.90;14.10;;;10.70;61.00;;;;;;349601;28;888;-53
2024/01/14 00:52:21;;;;;;;17.60;14.20;;;10.70;60.90;;;;;;349603;28;1082;-53
2024/01/14 00:52:32;;;;;;;18.48;14.18;;;10.70;60.90;;;;;;349618;28;1201;-53
2024/01/14 00:52:43;;;;;;;17.38;13.95;;;10.70;60.90;;;;;;349547;28;1138;-53
2024/01/14 00:52:54;;;;;;;17.25;13.90;;;10.70;60.90;;;;;;349670;28;1003;-54
2024/01/14 00:53:05;;;;;;;17.52;13.77;;;10.70;60.90;;;;;;349580;28;1446;-53
2024/01/14 00:53:15;;;;;;;17.95;14.02;;;10.70;60.90;;;;;;349569;28;1061;-53
2024/01/14 00:53:26;;;;;;;17.70;14.10;;;10.70;60.90;;;;;;349704;28;1054;-53
2024/01/14 00:53:37;;;;;;;16.83;14.67;;;10.70;60.90;;;;;;349677;28;852;-53
2024/01/14 00:53:47;;;;;;;17.10;14.55;;;10.70;60.90;;;;;;349528;28;1045;-53
2024/01/14 00:53:58;;;;;;;17.17;14.23;;;10.70;60.90;;;;;;349580;28;1973;-54
2024/01/14 00:54:09;;;;;;;18.13;14.18;;;10.70;60.90;;;;;;349673;28;903;-54
2024/01/14 00:54:20;;;;;;;17.50;14.05;;;10.70;60.90;;;;;;349549;28;1335;-54
2024/01/14 00:54:30;;;;;;;16.67;14.20;;;10.70;60.90;;;;;;349654;28;1018;-54
2024/01/14 00:54:42;;;;;;;15.88;13.93;;;10.70;60.90;;;;;;349649;28;1030;-54
2024/01/14 00:54:53;;;;;;;16.50;14.10;;;10.70;60.90;;;;;;349620;28;1118;-54
2024/01/14 00:55:04;;;;;;;17.17;14.13;;;10.70;60.90;;;;;;349617;28;1070;-54
2024/01/14 00:55:14;;;;;;;17.25;14.18;;;10.70;60.90;;;;;;349472;28;1633;-53
2024/01/14 00:55:25;;;;;;;16.23;14.10;;;10.70;61.00;;;;;;349683;28;926;-53
2024/01/14 00:55:36;;;;;;;16.25;14.15;;;10.70;61.00;;;;;;349652;28;1010;-54
2024/01/14 00:55:47;;;;;;;15.77;14.18;;;10.70;61.00;;;;;;349635;28;999;-54
2024/01/14 00:55:58;;;;;;;16.48;14.20;;;10.70;61.00;;;;;;349619;28;979;-54
2024/01/14 00:56:09;;;;;;;16.50;14.35;;;10.70;61.00;;;;;;349612;28;886;-54
2024/01/14 00:56:19;;;;;;;17.27;14.40;;;10.70;60.90;;;;;;349667;28;895;-54
2024/01/14 00:56:30;;;;;;;16.80;14.60;;;10.70;61.00;;;;;;349617;28;1106;-54
2024/01/14 00:56:41;;;;;;;17.33;14.33;;;10.70;61.00;;;;;;349631;28;959;-53
2024/01/14 00:56:52;;;;;;;17.23;14.05;;;10.70;60.90;;;;;;349658;28;1010;-54
2024/01/14 00:57:04;;;;;;;16.33;13.70;;;10.70;60.90;;;;;;349565;28;1019;-54
2024/01/14 00:57:15;;;;;;;15.73;13.93;;;10.70;60.90;;;;;;349675;28;1030;-54
2024/01/14 00:57:26;;;;;;;15.90;13.90;;;10.70;60.90;;;;;;349607;28;1563;-54